»·PEaware :: N713AG KSBP-KSAN

N713AG :: KSBP-KSAN

FLIGHT INFORMATION

Flight Status: Arrived
Operator: Privately registered:
United States
More flights under this callsign
Pilot: Sanjiv S. (4490)
Aircraft: SOCATA TBM-900
(TBM9)
More flights by this aircraft type
Origin: KSBP San Luis Co Regl
United States
Destination: KSAN San Diego Intl-Lindbergh
United States
More flights between these airports :: More routes between these airports
Route: +RZS VTU V208 SXC V208 LAX118R CARDI MZB320R MZB
File this flight plan on PilotEdge
Remarks: SBAP64 TEC ROUTE
Altitude:
(Current/Filed)
11,000ft
Speed:
(Current/Filed)
270kts
Departed: 17-Nov-18 09:49 PM
Arrived: 17-Nov-18 11:11 PM
Distance/Time
Traveled:
228nm/1:22
Distance/Time
To Go:
Arrived

Flight Plot

Page will automatically refresh every two minutes.

Flight plan parsing failed; only flown route is shown


Map Options




Map Legend


Flown Route
Filed Route
Departure Airport
Arrival Airport
Navaid (VOR, NDB)
Fix

Horizontal Profiles

Position Reports

Time Latitude Longitude Heading Altitude Ground
Speed
17-Nov-18 21:09 35.238945 -120.639406 180 178ft 0kts
17-Nov-18 21:10 35.238945 -120.639406 180 178ft 0kts
17-Nov-18 21:11 35.238945 -120.639406 180 178ft 0kts
17-Nov-18 21:12 35.238945 -120.639406 180 178ft 0kts
17-Nov-18 21:13 35.238945 -120.639406 180 178ft 0kts
17-Nov-18 21:19 35.238945 -120.639404 180 178ft 0kts
17-Nov-18 21:20 35.238945 -120.639404 180 178ft 0kts
17-Nov-18 21:21 35.238945 -120.639404 180 178ft 0kts
17-Nov-18 21:22 35.238945 -120.639404 180 178ft 0kts
17-Nov-18 21:23 35.238945 -120.639404 180 178ft 0kts
17-Nov-18 21:24 35.238945 -120.639404 180 178ft 0kts
17-Nov-18 21:25 35.238945 -120.639404 180 178ft 0kts
17-Nov-18 21:26 35.238945 -120.639404 180 178ft 0kts
17-Nov-18 21:27 35.238945 -120.639404 180 178ft 0kts
17-Nov-18 21:28 35.238945 -120.639404 180 178ft 0kts
17-Nov-18 21:29 35.238945 -120.639404 180 178ft 0kts
17-Nov-18 21:30 35.238945 -120.639404 180 178ft 0kts
17-Nov-18 21:31 35.238945 -120.639404 180 178ft 0kts
17-Nov-18 21:32 35.238945 -120.639404 180 178ft 0kts
17-Nov-18 21:33 35.238945 -120.639404 180 178ft 0kts
17-Nov-18 21:34 35.238945 -120.639404 180 178ft 0kts
17-Nov-18 21:35 35.238945 -120.639404 180 178ft 0kts
17-Nov-18 21:36 35.238945 -120.639404 180 178ft 0kts
17-Nov-18 21:37 35.238945 -120.639404 180 178ft 0kts
17-Nov-18 21:38 35.238945 -120.639404 180 178ft 0kts
17-Nov-18 21:39 35.238945 -120.639404 180 178ft 0kts
17-Nov-18 21:40 35.238945 -120.639404 180 178ft 0kts
17-Nov-18 21:41 35.238945 -120.639404 180 178ft 0kts
17-Nov-18 21:42 35.238945 -120.639404 180 178ft 0kts
17-Nov-18 21:43 35.238945 -120.639404 180 178ft 0kts
17-Nov-18 21:44 35.238945 -120.639404 180 178ft 0kts
17-Nov-18 21:45 35.238945 -120.639404 180 178ft 0kts
17-Nov-18 21:46 35.237905 -120.639171 146 178ft 8kts
17-Nov-18 21:47 35.236801 -120.637810 131 178ft 15kts
17-Nov-18 21:48 35.234051 -120.633067 127 178ft 11kts
17-Nov-18 21:49 35.233020 -120.632507 219 178ft 0kts
17-Nov-18 21:50 35.233020 -120.632507 219 178ft 0kts
17-Nov-18 21:51 35.233020 -120.632507 219 178ft 0kts
17-Nov-18 21:52 35.233755 -120.634334 300 178ft 47kts
17-Nov-18 21:53 35.246793 -120.655802 318 513ft 123kts
17-Nov-18 21:54 35.264224 -120.682855 303 1629ft 125kts
17-Nov-18 21:55 35.279467 -120.710580 303 3051ft 121kts
17-Nov-18 21:56 35.301594 -120.719701 47 4226ft 135kts
17-Nov-18 21:57 35.292370 -120.694297 165 5355ft 141kts
17-Nov-18 21:58 35.266944 -120.677825 137 6418ft 149kts
17-Nov-18 21:59 35.244599 -120.651494 135 7468ft 154kts
17-Nov-18 22:00 35.222072 -120.623832 134 8510ft 154kts
17-Nov-18 22:01 35.197848 -120.593991 134 9624ft 172kts
17-Nov-18 22:02 35.170732 -120.560596 134 10758ft 193kts
17-Nov-18 22:03 35.140883 -120.523871 134 11866ft 208kts
17-Nov-18 22:04 35.109616 -120.485437 134 12942ft 212kts
17-Nov-18 22:05 35.078147 -120.446805 134 13998ft 213kts
17-Nov-18 22:06 35.047112 -120.408755 134 14662ft 225kts
17-Nov-18 22:07 35.008465 -120.361432 134 14991ft 245kts
17-Nov-18 22:08 34.981634 -120.328618 135 14993ft 260kts
17-Nov-18 22:09 34.942739 -120.281104 135 14987ft 272kts
17-Nov-18 22:10 34.899546 -120.228417 135 14982ft 274kts
17-Nov-18 22:11 34.858674 -120.178638 135 14982ft 274kts
17-Nov-18 22:12 34.822234 -120.134322 135 14982ft 274kts
17-Nov-18 22:13 34.785704 -120.089957 135 14981ft 275kts
17-Nov-18 22:14 34.739667 -120.034129 135 14982ft 275kts
17-Nov-18 22:15 34.676462 -119.957633 135 14981ft 275kts
17-Nov-18 22:16 34.631368 -119.903163 135 14981ft 275kts
17-Nov-18 22:17 34.577680 -119.838427 135 14982ft 275kts
17-Nov-18 22:18 34.544475 -119.798452 135 14981ft 275kts
17-Nov-18 22:19 34.500763 -119.745898 135 14981ft 275kts
17-Nov-18 22:20 34.456621 -119.692912 135 14981ft 275kts
17-Nov-18 22:21 34.412950 -119.640572 135 14982ft 275kts
17-Nov-18 22:22 34.367341 -119.585997 135 14981ft 275kts
17-Nov-18 22:23 34.315654 -119.524256 135 14982ft 275kts
17-Nov-18 22:24 34.265894 -119.464922 135 14982ft 275kts
17-Nov-18 22:25 34.214144 -119.403328 135 14982ft 275kts
17-Nov-18 22:26 34.164004 -119.343756 135 14981ft 275kts
17-Nov-18 22:27 34.116479 -119.287391 135 14981ft 275kts
17-Nov-18 22:28 34.064145 -119.225428 135 14981ft 275kts
17-Nov-18 22:29 34.034546 -119.190434 135 14982ft 275kts
17-Nov-18 22:30 33.997387 -119.146551 135 15000ft 274kts
17-Nov-18 22:31 33.951679 -119.092651 135 15000ft 275kts
17-Nov-18 22:32 33.905330 -119.038082 135 15000ft 275kts
17-Nov-18 22:33 33.860089 -118.984903 135 14999ft 275kts
17-Nov-18 22:34 33.834160 -118.954459 135 14999ft 275kts
17-Nov-18 22:35 33.787368 -118.899594 135 14999ft 275kts
17-Nov-18 22:36 33.748418 -118.853989 135 14999ft 275kts
17-Nov-18 22:37 33.694057 -118.790443 135 15000ft 275kts
17-Nov-18 22:38 33.654193 -118.743920 135 15000ft 275kts
17-Nov-18 22:39 33.599044 -118.679663 135 14999ft 275kts
17-Nov-18 22:40 33.563592 -118.638418 135 15000ft 275kts
17-Nov-18 22:41 33.522762 -118.590979 135 15000ft 275kts
17-Nov-18 22:42 33.495137 -118.558920 135 15000ft 275kts
17-Nov-18 22:43 33.461765 -118.520231 135 15000ft 275kts
17-Nov-18 22:44 33.427507 -118.480561 135 14999ft 275kts
17-Nov-18 22:45 33.388777 -118.435766 135 15000ft 275kts
17-Nov-18 22:46 33.368631 -118.370852 98 15003ft 274kts
17-Nov-18 22:47 33.359533 -118.300861 98 15000ft 275kts
17-Nov-18 22:48 33.349305 -118.222903 98 15000ft 275kts
17-Nov-18 22:49 33.339184 -118.146147 98 15000ft 275kts
17-Nov-18 22:50 33.329063 -118.069778 98 15000ft 275kts
17-Nov-18 22:51 33.319269 -117.996223 98 15000ft 275kts
17-Nov-18 22:52 33.309270 -117.921477 98 15000ft 275kts
17-Nov-18 22:53 33.298972 -117.844865 98 15000ft 275kts
17-Nov-18 22:54 33.288189 -117.765026 98 14999ft 275kts
17-Nov-18 22:55 33.275576 -117.679539 99 14236ft 294kts
17-Nov-18 22:56 33.262822 -117.595158 99 13995ft 281kts
17-Nov-18 22:57 33.221560 -117.528356 133 13661ft 282kts
17-Nov-18 22:58 33.178373 -117.474227 133 12743ft 288kts
17-Nov-18 22:59 33.136260 -117.421984 138 11618ft 293kts
17-Nov-18 23:00 33.081630 -117.391344 154 10518ft 293kts
17-Nov-18 23:01 33.019666 -117.356910 154 9501ft 288kts
17-Nov-18 23:02 32.977612 -117.333568 155 8635ft 284kts
17-Nov-18 23:03 32.930661 -117.307536 155 7648ft 282kts
17-Nov-18 23:04 32.883255 -117.281282 155 6666ft 280kts
17-Nov-18 23:05 32.835941 -117.255121 155 5688ft 275kts
17-Nov-18 23:06 32.788918 -117.229584 155 4684ft 273kts
17-Nov-18 23:07 32.758661 -117.190744 101 3776ft 244kts
17-Nov-18 23:08 32.750863 -117.144956 101 2808ft 217kts
17-Nov-18 23:09 32.741573 -117.106544 137 1761ft 170kts
17-Nov-18 23:10 32.720607 -117.114676 253 835ft 138kts
17-Nov-18 23:11 32.722147 -117.142496 285 648ft 104kts
17-Nov-18 23:12 32.727600 -117.165321 285 365ft 96kts
17-Nov-18 23:13 32.732528 -117.185437 284 18ft 67kts
17-Nov-18 23:14 32.733866 -117.190696 304 18ft 9kts
17-Nov-18 23:15 32.734647 -117.189769 94 18ft 6kts

Navigation Log

Ident Type
Flight plan parsing failed, navigation log unavailable